createdAt,value
2019-03-23T00:00:29.757Z,15.70
2019-03-23T00:02:58.207Z,15.63
2019-03-23T00:05:26.928Z,18.98
2019-03-23T00:07:55.521Z,17.87
2019-03-23T00:10:23.819Z,21.07
2019-03-23T00:12:52.123Z,22.20
2019-03-23T00:15:20.487Z,21.17
2019-03-23T00:17:48.807Z,21.37
2019-03-23T00:20:17.102Z,22.20
2019-03-23T00:22:45.689Z,24.35
2019-03-23T00:25:14.272Z,20.23
2019-03-23T00:27:42.598Z,21.42
2019-03-23T00:30:13.037Z,19.48
2019-03-23T00:32:41.756Z,18.02
2019-03-23T00:35:10.157Z,19.67
2019-03-23T00:37:38.442Z,21.00
2019-03-23T00:40:08.593Z,17.60
2019-03-23T00:42:38.211Z,21.90
2019-03-23T00:45:07.715Z,17.03
2019-03-23T00:47:36.343Z,15.55
2019-03-23T00:50:06.398Z,18.37
2019-03-23T00:52:34.698Z,15.68
2019-03-23T00:55:03.014Z,14.90
2019-03-23T00:57:31.332Z,14.28
2019-03-23T00:59:59.961Z,15.17
2019-03-23T01:02:28.561Z,15.48
2019-03-23T01:04:57.843Z,11.75
2019-03-23T01:07:26.129Z,13.80
2019-03-23T01:09:54.448Z,15.30
2019-03-23T01:12:23.106Z,21.02
2019-03-23T01:14:51.404Z,17.35
2019-03-23T01:17:19.744Z,18.02
2019-03-23T01:19:48.346Z,20.65
2019-03-23T01:22:16.657Z,21.77
2019-03-23T01:24:44.950Z,25.20
2019-03-23T01:27:13.255Z,31.65
2019-03-23T01:29:41.548Z,27.15
2019-03-23T01:32:09.881Z,26.95
2019-03-23T01:34:38.183Z,24.27
2019-03-23T01:37:06.510Z,28.00
2019-03-23T01:39:34.814Z,28.90
2019-03-23T01:42:03.483Z,27.10
2019-03-23T01:44:32.118Z,31.95
2019-03-23T01:47:00.412Z,35.98
2019-03-23T01:49:28.731Z,31.93
2019-03-23T01:51:57.353Z,39.63
2019-03-23T01:54:25.670Z,39.35
2019-03-23T01:56:53.989Z,39.67
2019-03-23T01:59:22.338Z,49.53
2019-03-23T02:01:50.645Z,48.65
2019-03-23T02:04:18.964Z,52.27
2019-03-23T02:06:47.276Z,52.23
2019-03-23T02:09:15.597Z,67.03
2019-03-23T02:11:43.886Z,57.80
2019-03-23T02:14:12.196Z,66.53
2019-03-23T02:16:40.492Z,73.00
2019-03-23T02:19:08.820Z,81.17
2019-03-23T02:21:37.385Z,95.90
2019-03-23T02:24:05.713Z,102.43
2019-03-23T02:26:34.042Z,106.58
2019-03-23T02:29:02.364Z,105.83
2019-03-23T02:31:31.015Z,99.13
2019-03-23T02:33:59.387Z,102.33
2019-03-23T02:36:27.773Z,104.53
2019-03-23T02:38:56.104Z,104.80
2019-03-23T02:41:24.406Z,103.97
2019-03-23T02:43:52.716Z,106.25
2019-03-23T02:46:21.028Z,105.65
2019-03-23T02:48:49.341Z,105.03
2019-03-23T02:51:17.655Z,106.27
2019-03-23T02:53:45.992Z,114.63
2019-03-23T02:56:14.354Z,120.07
2019-03-23T02:58:42.664Z,123.75
2019-03-23T03:01:10.968Z,121.45
2019-03-23T03:03:39.318Z,123.42
2019-03-23T03:06:07.603Z,122.53
2019-03-23T03:08:35.955Z,118.17
2019-03-23T03:11:04.582Z,124.35
2019-03-23T03:13:32.879Z,127.45
2019-03-23T03:16:01.199Z,127.27
2019-03-23T03:18:29.484Z,137.97
2019-03-23T03:20:57.815Z,126.35
2019-03-23T03:23:26.129Z,125.60
2019-03-23T03:25:54.465Z,130.63
2019-03-23T03:28:22.749Z,124.03
2019-03-23T03:30:51.131Z,124.80
2019-03-23T03:33:19.475Z,132.55
2019-03-23T03:35:47.778Z,130.85
2019-03-23T03:38:16.152Z,140.18
2019-03-23T03:40:44.530Z,137.57
2019-03-23T03:43:12.837Z,143.13
2019-03-23T03:45:41.446Z,147.28
2019-03-23T03:48:09.771Z,151.87
2019-03-23T03:50:38.079Z,146.50
2019-03-23T03:53:06.385Z,143.52
2019-03-23T03:55:34.704Z,147.78
2019-03-23T03:58:03.026Z,146.55
2019-03-23T04:00:31.622Z,149.17
2019-03-23T04:02:59.937Z,147.62
2019-03-23T04:05:28.233Z,153.07
2019-03-23T04:08:09.847Z,153.30
2019-03-23T04:10:26.613Z,155.80
2019-03-23T04:12:54.932Z,145.85
2019-03-23T04:15:23.266Z,156.20
2019-03-23T04:17:51.565Z,157.65
2019-03-23T04:20:19.901Z,148.20
2019-03-23T04:22:48.220Z,150.75
2019-03-23T04:25:16.540Z,148.20
2019-03-23T04:27:44.851Z,152.35
2019-03-23T04:30:13.450Z,171.22
2019-03-23T04:32:41.781Z,167.93
2019-03-23T04:35:10.331Z,166.17
2019-03-23T04:37:38.660Z,169.57
2019-03-23T04:40:09.816Z,161.22
2019-03-23T04:42:38.447Z,158.22
2019-03-23T04:45:08.538Z,156.53
2019-03-23T04:47:37.165Z,167.25
2019-03-23T04:50:08.660Z,166.57
2019-03-23T04:52:36.972Z,155.67
2019-03-23T04:55:11.105Z,162.25
2019-03-23T04:57:39.949Z,165.47
2019-03-23T05:00:10.898Z,160.37
2019-03-23T05:02:39.520Z,168.37
2019-03-23T05:05:07.826Z,167.28
2019-03-23T05:07:36.132Z,190.05
2019-03-23T05:10:05.765Z,172.37
2019-03-23T05:12:34.349Z,173.53
2019-03-23T05:15:02.644Z,169.47
2019-03-23T05:17:30.965Z,171.30
2019-03-23T05:19:59.585Z,171.00
2019-03-23T05:22:27.927Z,160.45
2019-03-23T05:24:56.227Z,176.40
2019-03-23T05:27:24.550Z,181.93
2019-03-23T05:29:52.856Z,189.13
2019-03-23T05:32:21.205Z,192.72
2019-03-23T05:34:49.584Z,183.10
2019-03-23T05:37:17.921Z,184.78
2019-03-23T05:39:46.220Z,192.18
2019-03-23T05:42:14.529Z,188.55
2019-03-23T05:44:42.925Z,193.13
2019-03-23T05:47:11.272Z,178.95
2019-03-23T05:49:39.593Z,183.45
2019-03-23T05:52:07.898Z,252.85
2019-03-23T05:54:36.340Z,233.17
2019-03-23T05:57:04.961Z,190.80
2019-03-23T05:59:33.394Z,193.02
2019-03-23T06:02:01.765Z,192.28
2019-03-23T06:04:30.110Z,187.00
2019-03-23T06:06:58.418Z,179.93
2019-03-23T06:09:26.737Z,185.07
2019-03-23T06:11:55.047Z,196.82
2019-03-23T06:14:23.361Z,193.13
2019-03-23T06:16:51.669Z,202.45
2019-03-23T06:19:19.970Z,189.90
2019-03-23T06:21:48.280Z,187.10
2019-03-23T06:24:16.596Z,191.85
2019-03-23T06:26:44.916Z,203.15
2019-03-23T06:29:13.233Z,186.15
2019-03-23T06:31:41.537Z,196.40
2019-03-23T06:34:09.831Z,183.60
2019-03-23T06:36:38.157Z,175.57
2019-03-23T06:39:06.921Z,184.10
2019-03-23T06:41:35.287Z,181.07
2019-03-23T06:44:03.540Z,183.80
2019-03-23T06:46:31.879Z,185.95
2019-03-23T06:49:00.175Z,176.68
2019-03-23T06:51:28.494Z,169.90
2019-03-23T06:53:56.881Z,188.65
2019-03-23T06:56:25.204Z,179.40
2019-03-23T06:58:53.567Z,178.95
2019-03-23T07:01:22.208Z,173.80
2019-03-23T07:03:50.524Z,176.42
2019-03-23T07:06:18.838Z,179.10
2019-03-23T07:08:47.134Z,173.40
2019-03-23T07:11:15.459Z,156.83
2019-03-23T07:13:43.765Z,166.00
2019-03-23T07:16:12.087Z,160.03
2019-03-23T07:18:40.396Z,178.10
2019-03-23T07:21:09.014Z,163.03
2019-03-23T07:23:37.333Z,166.47
2019-03-23T07:26:05.640Z,159.70
2019-03-23T07:28:33.952Z,160.60
2019-03-23T07:31:02.533Z,159.12
2019-03-23T07:33:30.866Z,155.52
2019-03-23T07:35:59.174Z,149.90
2019-03-23T07:38:27.479Z,162.13
2019-03-23T07:40:55.874Z,148.57
2019-03-23T07:43:24.192Z,149.42
2019-03-23T07:45:52.487Z,148.22
2019-03-23T07:48:20.808Z,153.40
2019-03-23T07:50:49.098Z,141.22
2019-03-23T07:53:17.419Z,142.07
2019-03-23T07:55:45.734Z,140.80
2019-03-23T07:58:14.385Z,136.60
2019-03-23T08:00:42.673Z,142.05
2019-03-23T08:03:11.351Z,141.95
2019-03-23T08:05:39.683Z,131.23
2019-03-23T08:08:08.017Z,129.15
2019-03-23T08:10:36.584Z,130.63
2019-03-23T08:13:05.166Z,129.45
2019-03-23T08:15:33.643Z,120.50
2019-03-23T08:18:02.012Z,126.00
2019-03-23T08:20:30.325Z,110.30
2019-03-23T08:22:58.631Z,122.87
2019-03-23T08:25:26.963Z,119.10
2019-03-23T08:27:55.272Z,111.60
2019-03-23T08:30:23.628Z,114.00
2019-03-23T08:32:52.042Z,104.05
2019-03-23T08:35:20.372Z,113.68
2019-03-23T08:37:48.672Z,111.85
2019-03-23T08:40:16.985Z,114.60
2019-03-23T08:42:45.361Z,103.47
2019-03-23T08:45:13.826Z,119.33
2019-03-23T08:47:42.155Z,109.30
2019-03-23T08:50:10.743Z,106.12
2019-03-23T08:52:39.064Z,117.70
2019-03-23T08:55:07.394Z,109.85
2019-03-23T08:57:35.712Z,112.65
2019-03-23T09:00:06.220Z,109.57
2019-03-23T09:02:34.555Z,103.80
2019-03-23T09:05:02.850Z,117.35
2019-03-23T09:07:31.187Z,111.15
2019-03-23T09:09:59.666Z,114.05
2019-03-23T09:12:28.040Z,107.60
2019-03-23T09:14:56.351Z,99.47
2019-03-23T09:17:24.979Z,99.37
2019-03-23T09:19:53.311Z,100.00
2019-03-23T09:22:21.619Z,94.55
2019-03-23T09:24:49.937Z,108.60
2019-03-23T09:27:18.233Z,101.70
2019-03-23T09:29:46.857Z,105.97
2019-03-23T09:32:15.436Z,100.60
2019-03-23T09:34:43.739Z,98.10
2019-03-23T09:37:12.133Z,101.40
2019-03-23T09:39:40.816Z,99.83
2019-03-23T09:42:09.315Z,104.50
2019-03-23T09:44:37.712Z,106.65
2019-03-23T09:47:06.044Z,100.12
2019-03-23T09:49:34.341Z,89.85
2019-03-23T09:52:02.681Z,94.27
2019-03-23T09:54:30.994Z,97.43
2019-03-23T09:56:59.666Z,93.55
2019-03-23T09:59:28.057Z,93.22
2019-03-23T10:01:56.393Z,86.17
2019-03-23T10:04:24.691Z,89.30
2019-03-23T10:06:52.994Z,88.62
2019-03-23T10:09:21.623Z,87.78
2019-03-23T10:11:50.206Z,85.35
2019-03-23T10:14:18.576Z,92.67
2019-03-23T10:16:47.123Z,87.92
2019-03-23T10:19:15.434Z,90.33
2019-03-23T10:21:43.732Z,83.30
2019-03-23T10:24:12.073Z,87.75
2019-03-23T10:26:40.379Z,88.17
2019-03-23T10:29:08.720Z,89.77
2019-03-23T10:31:37.018Z,88.40
2019-03-23T10:34:05.348Z,90.62
2019-03-23T10:36:33.733Z,87.90
2019-03-23T10:39:02.300Z,84.58
2019-03-23T10:41:30.628Z,81.08
2019-03-23T10:43:58.956Z,76.17
2019-03-23T10:46:27.521Z,85.60
2019-03-23T10:48:55.850Z,82.15
2019-03-23T10:51:24.157Z,80.70
2019-03-23T10:53:52.484Z,76.30
2019-03-23T10:56:20.775Z,84.45
2019-03-23T10:58:49.091Z,76.10
2019-03-23T11:01:17.385Z,88.45
2019-03-23T11:03:45.696Z,79.82
2019-03-23T11:06:14.018Z,69.75
2019-03-23T11:08:42.643Z,72.27
2019-03-23T11:11:11.295Z,64.00
2019-03-23T11:13:39.713Z,67.90
2019-03-23T11:16:08.377Z,77.67
2019-03-23T11:18:37.882Z,72.65
2019-03-23T11:21:06.267Z,71.87
2019-03-23T11:23:34.577Z,81.40
2019-03-23T11:26:02.900Z,76.83
2019-03-23T11:28:31.207Z,68.87
2019-03-23T11:31:00.168Z,65.27
2019-03-23T11:33:28.472Z,68.33
2019-03-23T11:35:58.050Z,70.50
2019-03-23T11:38:26.849Z,63.68
2019-03-23T11:40:55.492Z,68.22
2019-03-23T11:43:23.759Z,63.63
2019-03-23T11:45:52.052Z,68.43
2019-03-23T11:48:20.371Z,68.40
2019-03-23T11:50:48.677Z,70.80
2019-03-23T11:53:17.018Z,67.17
2019-03-23T11:55:45.332Z,68.43
2019-03-23T11:58:13.973Z,65.08
2019-03-23T12:00:42.397Z,63.08
2019-03-23T12:03:10.753Z,63.00
2019-03-23T12:05:39.052Z,59.65
2019-03-23T12:08:07.383Z,67.10
2019-03-23T12:10:35.677Z,61.05
2019-03-23T12:13:04.454Z,64.90
2019-03-23T12:15:32.766Z,65.37
2019-03-23T12:18:01.079Z,63.00
2019-03-23T12:20:29.420Z,62.73
2019-03-23T12:22:57.707Z,61.73
2019-03-23T12:25:26.042Z,62.88
2019-03-23T12:27:54.346Z,61.95
2019-03-23T12:30:23.056Z,67.12
2019-03-23T12:32:51.355Z,66.37
2019-03-23T12:35:19.695Z,62.10
2019-03-23T12:37:48.254Z,50.70
2019-03-23T12:40:16.573Z,50.88
2019-03-23T12:42:44.880Z,57.10
2019-03-23T12:45:13.381Z,55.15
2019-03-23T12:47:41.997Z,55.43
2019-03-23T12:50:11.375Z,53.80
2019-03-23T12:52:39.662Z,56.83
2019-03-23T12:55:08.524Z,54.48
2019-03-23T12:57:36.836Z,51.92
2019-03-23T13:00:08.665Z,55.08
2019-03-23T13:02:36.986Z,57.23
2019-03-23T13:05:06.734Z,53.80
2019-03-23T13:07:35.044Z,53.08
2019-03-23T13:10:04.209Z,58.20
2019-03-23T13:12:32.527Z,52.60
2019-03-23T13:15:00.833Z,54.95
2019-03-23T13:17:29.148Z,54.05
2019-03-23T13:19:57.531Z,54.85
2019-03-23T13:22:25.856Z,56.65
2019-03-23T13:24:54.238Z,53.63
2019-03-23T13:27:22.565Z,49.58
2019-03-23T13:29:50.868Z,53.00
2019-03-23T13:32:19.196Z,51.50
2019-03-23T13:34:47.496Z,56.18
2019-03-23T13:37:15.806Z,64.30
2019-03-23T13:39:44.208Z,52.80
2019-03-23T13:42:12.565Z,47.90
2019-03-23T13:44:40.876Z,49.67
2019-03-23T13:47:09.171Z,47.90
2019-03-23T13:49:37.767Z,52.13
2019-03-23T13:52:06.077Z,48.60
2019-03-23T13:54:34.393Z,51.50
2019-03-23T13:57:02.699Z,52.53
2019-03-23T13:59:31.112Z,52.15
2019-03-23T14:01:59.767Z,52.75
2019-03-23T14:04:28.070Z,50.80
2019-03-23T14:06:56.726Z,50.03
2019-03-23T14:09:25.034Z,50.95
2019-03-23T14:11:55.292Z,54.70
2019-03-23T14:14:23.464Z,57.70
2019-03-23T14:16:52.092Z,52.40
2019-03-23T14:19:20.404Z,50.17
2019-03-23T14:21:48.730Z,51.02
2019-03-23T14:24:17.041Z,55.85
2019-03-23T14:26:45.378Z,55.15
2019-03-23T14:29:13.686Z,54.38
2019-03-23T14:31:42.023Z,49.83
2019-03-23T14:34:10.333Z,50.50
2019-03-23T14:36:38.658Z,54.55
2019-03-23T14:39:07.336Z,58.42
2019-03-23T14:41:35.979Z,59.42
2019-03-23T14:44:04.283Z,57.85
2019-03-23T14:46:32.618Z,58.98
2019-03-23T14:49:01.899Z,66.22
2019-03-23T14:51:30.402Z,62.27
2019-03-23T14:53:59.001Z,65.28
2019-03-23T14:56:31.646Z,65.60
2019-03-23T14:58:57.913Z,62.60
2019-03-23T15:01:26.584Z,60.37
2019-03-23T15:03:55.216Z,64.90
2019-03-23T15:06:23.522Z,65.87
2019-03-23T15:08:51.855Z,65.25
2019-03-23T15:11:20.243Z,57.40
2019-03-23T15:13:48.545Z,61.68
2019-03-23T15:16:16.877Z,63.95
2019-03-23T15:18:45.181Z,64.65
2019-03-23T15:21:13.496Z,62.35
2019-03-23T15:23:42.060Z,61.13
2019-03-23T15:26:10.683Z,65.17
2019-03-23T15:28:39.008Z,66.15
2019-03-23T15:31:07.318Z,64.00
2019-03-23T15:33:35.632Z,65.92
2019-03-23T15:36:03.953Z,66.05
2019-03-23T15:38:32.575Z,67.35
2019-03-23T15:41:00.920Z,70.60
2019-03-23T15:43:29.264Z,59.90
2019-03-23T15:45:57.571Z,59.63
2019-03-23T15:48:25.892Z,58.73
2019-03-23T15:50:54.193Z,55.30
2019-03-23T15:53:22.524Z,54.33
2019-03-23T15:55:50.826Z,56.68
2019-03-23T15:58:19.134Z,58.78
2019-03-23T16:00:47.443Z,55.17
2019-03-23T16:03:15.751Z,56.42
2019-03-23T16:05:44.047Z,55.40
2019-03-23T16:08:12.362Z,56.00
2019-03-23T16:10:41.014Z,59.17
2019-03-23T16:13:09.345Z,59.67
2019-03-23T16:15:37.943Z,58.87
2019-03-23T16:18:06.277Z,61.50
2019-03-23T16:20:34.911Z,63.23
2019-03-23T16:23:03.601Z,63.17
2019-03-23T16:25:31.897Z,64.95
2019-03-23T16:28:00.579Z,64.65
2019-03-23T16:30:30.426Z,64.92
2019-03-23T16:32:58.938Z,63.98
2019-03-23T16:35:27.268Z,66.70
2019-03-23T16:37:55.599Z,68.45
2019-03-23T16:40:23.907Z,77.05
2019-03-23T16:42:52.434Z,66.82
2019-03-23T16:45:20.981Z,61.80
2019-03-23T16:47:49.327Z,76.50
2019-03-23T16:50:17.655Z,66.37
2019-03-23T16:52:45.964Z,64.25
2019-03-23T16:55:14.484Z,65.57
2019-03-23T16:57:42.780Z,66.47
2019-03-23T17:00:15.442Z,67.22
2019-03-23T17:02:44.008Z,72.60
2019-03-23T17:05:12.662Z,70.70
2019-03-23T17:07:40.970Z,71.57
2019-03-23T17:10:09.442Z,75.67
2019-03-23T17:12:37.737Z,74.45
2019-03-23T17:15:07.835Z,74.80
2019-03-23T17:17:36.848Z,67.43
2019-03-23T17:20:05.736Z,73.33
2019-03-23T17:22:34.040Z,69.80
2019-03-23T17:25:02.522Z,72.85
2019-03-23T17:27:30.820Z,71.30
2019-03-23T17:29:59.195Z,69.32
2019-03-23T17:32:27.495Z,71.30
2019-03-23T17:34:55.816Z,73.50
2019-03-23T17:37:24.476Z,71.40
2019-03-23T17:39:52.888Z,71.67
2019-03-23T17:42:21.217Z,68.12
2019-03-23T17:44:49.520Z,72.45
2019-03-23T17:47:17.832Z,71.70
2019-03-23T17:49:46.136Z,75.17
2019-03-23T17:52:14.459Z,72.78
2019-03-23T17:54:42.757Z,70.70
2019-03-23T17:57:11.056Z,76.87
2019-03-23T17:59:39.379Z,67.97
2019-03-23T18:02:07.681Z,61.30
2019-03-23T18:04:36.028Z,56.77
2019-03-23T18:07:04.322Z,53.27
2019-03-23T18:09:32.647Z,48.57
2019-03-23T18:12:00.959Z,58.15
2019-03-23T18:14:29.280Z,36.20
2019-03-23T18:16:57.593Z,32.67
2019-03-23T18:19:26.211Z,29.20
2019-03-23T18:21:54.513Z,27.02
2019-03-23T18:24:22.831Z,28.25
2019-03-23T18:26:51.159Z,25.77
2019-03-23T18:29:19.474Z,32.90
2019-03-23T18:31:48.087Z,34.00
2019-03-23T18:34:16.420Z,31.87
2019-03-23T18:36:44.733Z,28.70
2019-03-23T18:39:13.066Z,29.23
2019-03-23T18:41:41.378Z,29.48
2019-03-23T18:44:16.223Z,34.03
2019-03-23T18:46:40.208Z,32.60
2019-03-23T18:49:08.502Z,32.35
2019-03-23T18:51:37.119Z,31.82
2019-03-23T18:54:05.429Z,32.33
2019-03-23T18:56:33.971Z,33.80
2019-03-23T18:59:02.275Z,32.60
2019-03-23T19:01:30.890Z,32.70
2019-03-23T19:03:59.293Z,33.23
2019-03-23T19:06:27.617Z,30.97
2019-03-23T19:08:55.908Z,32.85
2019-03-23T19:11:24.503Z,35.43
2019-03-23T19:13:52.811Z,37.00
2019-03-23T19:16:21.113Z,33.53
2019-03-23T19:18:49.441Z,34.95
2019-03-23T19:21:18.131Z,34.10
2019-03-23T19:23:46.455Z,36.63
2019-03-23T19:26:14.756Z,34.05
2019-03-23T19:28:43.066Z,38.00
2019-03-23T19:31:11.381Z,34.20
2019-03-23T19:33:39.705Z,35.38
2019-03-23T19:36:08.300Z,36.70
2019-03-23T19:38:36.730Z,38.28
2019-03-23T19:41:05.662Z,37.70
2019-03-23T19:43:34.055Z,39.50
2019-03-23T19:46:02.383Z,37.10
2019-03-23T19:48:30.690Z,35.50
2019-03-23T19:50:59.020Z,35.83
2019-03-23T19:53:27.352Z,38.53
2019-03-23T19:55:55.660Z,35.38
2019-03-23T19:58:23.962Z,36.58
2019-03-23T20:00:52.296Z,37.38
2019-03-23T20:03:20.862Z,34.18
2019-03-23T20:05:49.249Z,34.30
2019-03-23T20:08:17.558Z,35.23
2019-03-23T20:10:45.890Z,31.70
2019-03-23T20:13:14.188Z,30.45
2019-03-23T20:15:42.521Z,25.85
2019-03-23T20:18:10.824Z,22.10
2019-03-23T20:20:39.140Z,18.90
2019-03-23T20:23:07.461Z,20.80
2019-03-23T20:25:35.778Z,18.95
2019-03-23T20:28:04.075Z,18.80
2019-03-23T20:30:32.420Z,18.17
2019-03-23T20:33:00.741Z,18.43
2019-03-23T20:35:29.032Z,14.85
2019-03-23T20:37:57.349Z,19.50
2019-03-23T20:40:25.659Z,18.07
2019-03-23T20:42:53.984Z,15.00
2019-03-23T20:45:27.556Z,13.88
2019-03-23T20:47:56.200Z,13.88
2019-03-23T20:50:24.502Z,13.55
2019-03-23T20:52:52.829Z,15.30
2019-03-23T20:55:28.522Z,11.50
2019-03-23T20:57:56.867Z,13.63
2019-03-23T21:00:25.181Z,15.13
2019-03-23T21:02:53.510Z,14.83
2019-03-23T21:05:33.200Z,17.57
2019-03-23T21:07:52.110Z,11.55
2019-03-23T21:10:21.360Z,13.35
2019-03-23T21:12:49.667Z,13.03
2019-03-23T21:15:17.996Z,18.23
2019-03-23T21:17:51.339Z,11.30
2019-03-23T21:20:16.365Z,12.25
2019-03-23T21:22:44.688Z,12.93
2019-03-23T21:25:13.556Z,14.73
2019-03-23T21:27:41.857Z,11.88
2019-03-23T21:30:13.183Z,20.65
2019-03-23T21:32:41.746Z,13.88
2019-03-23T21:35:10.324Z,13.43
2019-03-23T21:37:38.816Z,15.00
2019-03-23T21:40:07.604Z,17.00
2019-03-23T21:42:35.941Z,17.02
2019-03-23T21:45:05.782Z,19.87
2019-03-23T21:47:34.102Z,12.00
2019-03-23T21:50:02.409Z,12.65
2019-03-23T21:52:30.986Z,15.13
2019-03-23T21:54:59.290Z,12.23
2019-03-23T21:57:27.621Z,15.07
2019-03-23T21:59:55.991Z,14.05
2019-03-23T22:02:24.315Z,17.23
2019-03-23T22:04:52.609Z,13.93
2019-03-23T22:07:21.213Z,16.97
2019-03-23T22:09:49.515Z,14.10
2019-03-23T22:12:17.842Z,17.00
2019-03-23T22:14:46.445Z,15.80
2019-03-23T22:17:14.747Z,15.55
2019-03-23T22:19:43.051Z,11.97
2019-03-23T22:22:11.688Z,19.52
2019-03-23T22:24:40.005Z,13.68
2019-03-23T22:27:08.290Z,22.62
2019-03-23T22:29:36.919Z,18.48
2019-03-23T22:32:05.268Z,18.27
2019-03-23T22:34:33.874Z,14.90
2019-03-23T22:37:02.170Z,14.93
2019-03-23T22:39:30.527Z,19.52
2019-03-23T22:41:59.214Z,18.75
2019-03-23T22:44:27.535Z,16.97
2019-03-23T22:46:55.819Z,15.98
2019-03-23T22:49:24.449Z,12.23
2019-03-23T22:51:52.773Z,18.00
2019-03-23T22:54:21.421Z,17.73
2019-03-23T22:56:49.997Z,16.30
2019-03-23T22:59:18.282Z,16.48
2019-03-23T23:01:46.956Z,18.40
2019-03-23T23:04:15.429Z,18.57
2019-03-23T23:06:44.034Z,16.17
2019-03-23T23:09:12.313Z,16.30
2019-03-23T23:11:40.636Z,15.80
2019-03-23T23:14:08.929Z,21.40
2019-03-23T23:16:37.206Z,18.57
2019-03-23T23:19:05.555Z,17.50
2019-03-23T23:21:33.852Z,16.65
2019-03-23T23:24:02.189Z,19.52
2019-03-23T23:26:30.481Z,17.40
2019-03-23T23:28:58.798Z,17.60
2019-03-23T23:31:27.084Z,21.27
2019-03-23T23:33:55.390Z,21.75
2019-03-23T23:36:23.685Z,19.30
2019-03-23T23:38:52.636Z,22.22
2019-03-23T23:41:21.019Z,20.82
2019-03-23T23:43:49.339Z,19.52
2019-03-23T23:46:17.662Z,21.15
2019-03-23T23:48:51.302Z,25.17
2019-03-23T23:51:16.013Z,18.20
2019-03-23T23:53:44.314Z,25.57
2019-03-23T23:56:12.617Z,25.63
2019-03-23T23:58:40.914Z,19.13
